Time;durP1;ratioP1;P1;durP2;ratioP2;P2;SDS_P1;SDS_P2;PMS_P1;PMS_P2;Temp;Humidity;BMP_temperature;BMP_pressure;BME280_temperature;BME280_humidity;BME280_pressure;Samples;Min_cycle;Max_cycle;Signal;HPM_P1;HPM_P2
2023/09/21 00:02:26;;;;;;;;;;;23.60;75.90;;;;;;5103745;28;20382;-46
2023/09/21 00:04:52;;;;;;;;;;;23.70;75.70;;;;;;5102567;28;19930;-47
2023/09/21 00:07:18;;;;;;;;;;;23.60;76.20;;;;;;5103819;28;19924;-45
2023/09/21 00:09:44;;;;;;;;;;;23.60;75.60;;;;;;5104021;28;19926;-46
2023/09/21 00:12:10;;;;;;;;;;;23.60;75.70;;;;;;5103193;28;19920;-46
2023/09/21 00:14:36;;;;;;;;;;;23.60;76.00;;;;;;5104172;28;20376;-46
2023/09/21 00:17:03;;;;;;;;;;;23.60;76.10;;;;;;5103086;28;19908;-46
2023/09/21 00:19:30;;;;;;;;;;;23.60;76.20;;;;;;5103688;28;19919;-46
2023/09/21 00:21:57;;;;;;;;;;;23.60;76.60;;;;;;5103602;28;19970;-46
2023/09/21 00:24:23;;;;;;;;;;;23.60;77.00;;;;;;5103607;28;19915;-46
2023/09/21 00:26:51;;;;;;;;;;;23.60;77.40;;;;;;5095819;28;19912;-46
2023/09/21 00:29:17;;;;;;;;;;;23.60;77.50;;;;;;5103914;28;19923;-45
2023/09/21 00:31:43;;;;;;;;;;;23.60;77.50;;;;;;5103322;28;19978;-46
2023/09/21 00:34:10;;;;;;;;;;;23.60;77.60;;;;;;5103111;28;19912;-47
2023/09/21 00:36:36;;;;;;;;;;;23.60;77.60;;;;;;5103272;28;19918;-46
2023/09/21 00:39:03;;;;;;;;;;;23.60;77.60;;;;;;5102314;28;19916;-45
2023/09/21 00:41:32;;;;;;;;;;;23.60;77.50;;;;;;5103420;28;20010;-46
2023/09/21 00:43:59;;;;;;;;;;;23.60;77.50;;;;;;5102545;28;19912;-47
2023/09/21 00:46:26;;;;;;;;;;;23.60;77.50;;;;;;5094849;28;19907;-46
2023/09/21 00:48:52;;;;;;;;;;;23.60;77.40;;;;;;5102514;28;19916;-46
2023/09/21 00:51:18;;;;;;;;;;;23.60;77.30;;;;;;5102684;28;19967;-46
2023/09/21 00:53:44;;;;;;;;;;;23.60;77.30;;;;;;5103101;28;20010;-46
2023/09/21 00:56:11;;;;;;;;;;;23.60;77.20;;;;;;5103172;28;19987;-46
2023/09/21 00:58:39;;;;;;;;;;;23.60;77.20;;;;;;5102893;28;20074;-47
2023/09/21 01:01:05;;;;;;;;;;;23.60;77.20;;;;;;5118665;28;19907;-46
2023/09/21 01:03:34;;;;;;;;;;;23.60;77.20;;;;;;5095057;28;19914;-46
2023/09/21 01:06:02;;;;;;;;;;;23.60;77.10;;;;;;5102900;28;19904;-45
2023/09/21 01:08:28;;;;;;;;;;;23.60;77.20;;;;;;5103156;28;19919;-47
2023/09/21 01:10:55;;;;;;;;;;;23.60;77.10;;;;;;5102748;28;19912;-47
2023/09/21 01:13:20;;;;;;;;;;;23.50;77.10;;;;;;5102877;28;19908;-46
2023/09/21 01:16:02;;;;;;;;;;;23.50;77.00;;;;;;5103113;28;19919;-47
2023/09/21 01:18:28;;;;;;;;;;;23.50;77.00;;;;;;5095413;28;19912;-46
2023/09/21 01:21:16;;;;;;;;;;;23.50;76.70;;;;;;5102074;28;19908;-47
2023/09/21 01:23:45;;;;;;;;;;;23.50;76.60;;;;;;5095662;28;20400;-46
2023/09/21 01:26:14;;;;;;;;;;;23.50;76.50;;;;;;5101920;28;21778;-46
2023/09/21 01:28:40;;;;;;;;;;;23.50;76.40;;;;;;5104660;28;19915;-46
2023/09/21 01:31:11;;;;;;;;;;;23.50;76.30;;;;;;5107020;28;19912;-46
2023/09/21 01:33:38;;;;;;;;;;;23.50;76.30;;;;;;5100743;28;19908;-47
2023/09/21 01:36:08;;;;;;;;;;;23.50;76.50;;;;;;5106860;28;20670;-46
2023/09/21 01:38:35;;;;;;;;;;;23.50;76.50;;;;;;5107125;28;19933;-48
2023/09/21 01:41:01;;;;;;;;;;;23.50;76.70;;;;;;5107727;28;19911;-46
2023/09/21 01:43:26;;;;;;;;;;;23.50;76.70;;;;;;5107139;28;20427;-46
2023/09/21 01:45:52;;;;;;;;;;;23.50;76.80;;;;;;5106635;28;20011;-47
2023/09/21 01:48:21;;;;;;;;;;;23.50;76.70;;;;;;5105942;28;19983;-46
2023/09/21 01:50:48;;;;;;;;;;;23.40;76.70;;;;;;5106255;28;19908;-46
2023/09/21 01:53:14;;;;;;;;;;;23.40;76.60;;;;;;5106017;28;19958;-46
2023/09/21 01:55:40;;;;;;;;;;;23.40;76.50;;;;;;5106531;28;19962;-46
2023/09/21 01:58:07;;;;;;;;;;;23.40;76.40;;;;;;5105967;28;20376;-46
2023/09/21 02:00:35;;;;;;;;;;;23.40;76.20;;;;;;5106093;28;19915;-45
2023/09/21 02:03:06;;;;;;;;;;;23.40;76.10;;;;;;5105652;28;19915;-46
2023/09/21 02:05:32;;;;;;;;;;;23.40;76.10;;;;;;5106136;28;19908;-46
2023/09/21 02:07:58;;;;;;;;;;;23.40;76.10;;;;;;5105656;28;19947;-46
2023/09/21 02:10:24;;;;;;;;;;;23.40;76.60;;;;;;5093847;28;20070;-46
2023/09/21 02:12:57;;;;;;;;;;;23.40;76.40;;;;;;5106194;28;19908;-46
2023/09/21 02:15:23;;;;;;;;;;;23.30;76.50;;;;;;5105942;28;20390;-47
2023/09/21 02:17:49;;;;;;;;;;;23.30;77.20;;;;;;5105768;28;19912;-47
2023/09/21 02:20:16;;;;;;;;;;;23.30;76.40;;;;;;5105611;28;19912;-46
2023/09/21 02:22:45;;;;;;;;;;;23.30;76.40;;;;;;5105970;28;20762;-46
2023/09/21 02:25:11;;;;;;;;;;;23.30;76.30;;;;;;5105634;28;19954;-46
2023/09/21 02:27:47;;;;;;;;;;;23.30;76.50;;;;;;5106103;28;19908;-47
2023/09/21 02:30:13;;;;;;;;;;;23.30;76.40;;;;;;5105785;28;19923;-47
2023/09/21 02:32:41;;;;;;;;;;;23.30;76.10;;;;;;5105606;28;19912;-46
2023/09/21 02:35:13;;;;;;;;;;;23.30;76.10;;;;;;5105748;28;19943;-46
2023/09/21 02:37:39;;;;;;;;;;;23.30;76.10;;;;;;5106411;28;19919;-46
2023/09/21 02:40:14;;;;;;;;;;;23.30;76.10;;;;;;5105799;28;19939;-46
2023/09/21 02:42:41;;;;;;;;;;;23.30;76.20;;;;;;5106392;28;19912;-46
2023/09/21 02:45:10;;;;;;;;;;;23.20;76.10;;;;;;5105934;28;20363;-46
2023/09/21 02:47:36;;;;;;;;;;;23.20;76.80;;;;;;5097362;28;19958;-46
2023/09/21 02:50:14;;;;;;;;;;;23.20;76.30;;;;;;5104657;28;19916;-46
2023/09/21 02:52:45;;;;;;;;;;;23.20;76.40;;;;;;5105641;28;19912;-46
2023/09/21 02:55:11;;;;;;;;;;;23.20;76.40;;;;;;5104579;28;19971;-45
2023/09/21 02:57:37;;;;;;;;;;;23.20;76.50;;;;;;5080975;28;20430;-46
2023/09/21 03:00:11;;;;;;;;;;;23.20;76.40;;;;;;5094400;28;19912;-47
2023/09/21 03:02:37;;;;;;;;;;;23.20;76.50;;;;;;5105782;28;19951;-46
2023/09/21 03:05:03;;;;;;;;;;;23.20;76.50;;;;;;5095656;28;19912;-47
2023/09/21 03:07:29;;;;;;;;;;;23.20;76.30;;;;;;5087503;28;19920;-46
2023/09/21 03:09:55;;;;;;;;;;;23.10;76.20;;;;;;5094954;28;19916;-46
2023/09/21 03:12:22;;;;;;;;;;;23.10;76.20;;;;;;5093575;28;19944;-46
2023/09/21 03:14:48;;;;;;;;;;;23.10;76.30;;;;;;5093203;28;19920;-47
2023/09/21 03:17:14;;;;;;;;;;;23.10;76.20;;;;;;5102987;28;20331;-46
2023/09/21 03:19:40;;;;;;;;;;;23.10;76.10;;;;;;5105024;28;19914;-47
2023/09/21 03:22:06;;;;;;;;;;;23.10;76.10;;;;;;5105740;28;19927;-47
2023/09/21 03:24:33;;;;;;;;;;;23.10;76.20;;;;;;5103479;28;19912;-46
2023/09/21 03:26:59;;;;;;;;;;;23.10;76.30;;;;;;5099120;28;19916;-46
2023/09/21 03:29:24;;;;;;;;;;;23.10;76.40;;;;;;5097584;28;19979;-46
2023/09/21 03:31:50;;;;;;;;;;;23.10;76.40;;;;;;5104104;28;19931;-45
2023/09/21 03:34:16;;;;;;;;;;;23.10;76.50;;;;;;5083262;28;19959;-46
2023/09/21 03:36:42;;;;;;;;;;;23.00;76.30;;;;;;5099908;28;20352;-46
2023/09/21 03:39:09;;;;;;;;;;;23.10;76.40;;;;;;5104933;28;19919;-45
2023/09/21 03:41:36;;;;;;;;;;;23.00;76.30;;;;;;5104625;28;19912;-46
2023/09/21 03:44:03;;;;;;;;;;;23.00;76.60;;;;;;5103807;28;20420;-46
2023/09/21 03:46:29;;;;;;;;;;;23.00;76.50;;;;;;5104943;28;19939;-46
2023/09/21 03:48:56;;;;;;;;;;;23.00;76.40;;;;;;5103725;28;19920;-46
2023/09/21 03:51:21;;;;;;;;;;;23.00;76.50;;;;;;5084902;28;19991;-47
2023/09/21 03:53:47;;;;;;;;;;;23.00;76.50;;;;;;5103801;28;19912;-46
2023/09/21 03:56:13;;;;;;;;;;;23.00;76.50;;;;;;5103012;28;19916;-46
2023/09/21 03:58:39;;;;;;;;;;;22.90;76.40;;;;;;5103871;28;19912;-46
2023/09/21 04:01:06;;;;;;;;;;;22.90;76.50;;;;;;5094233;28;19908;-46
2023/09/21 04:03:32;;;;;;;;;;;22.90;76.50;;;;;;5095499;28;20453;-47
2023/09/21 04:06:06;;;;;;;;;;;22.90;76.50;;;;;;5101626;28;19960;-46
2023/09/21 04:08:32;;;;;;;;;;;22.90;76.50;;;;;;5113117;28;19912;-46
2023/09/21 04:10:59;;;;;;;;;;;22.90;76.60;;;;;;5104398;28;19923;-46
2023/09/21 04:13:25;;;;;;;;;;;22.90;76.50;;;;;;5096051;28;20407;-47
2023/09/21 04:15:51;;;;;;;;;;;22.90;76.70;;;;;;5102930;28;19912;-46
2023/09/21 04:18:17;;;;;;;;;;;22.90;76.70;;;;;;5085538;28;19914;-46
2023/09/21 04:20:44;;;;;;;;;;;22.90;76.80;;;;;;5103814;28;19919;-46
2023/09/21 04:23:10;;;;;;;;;;;22.80;76.70;;;;;;5103609;28;19915;-46
2023/09/21 04:25:38;;;;;;;;;;;22.80;76.50;;;;;;5103712;28;19912;-46
2023/09/21 04:28:05;;;;;;;;;;;22.90;76.60;;;;;;5103789;28;19916;-47
2023/09/21 04:30:34;;;;;;;;;;;22.80;76.70;;;;;;5103824;28;19908;-47
2023/09/21 04:33:00;;;;;;;;;;;22.80;76.70;;;;;;5103300;28;19919;-46
2023/09/21 04:35:26;;;;;;;;;;;22.80;76.70;;;;;;5103577;28;19911;-46
2023/09/21 04:37:54;;;;;;;;;;;22.80;76.80;;;;;;5103078;28;19998;-46
2023/09/21 04:40:20;;;;;;;;;;;22.80;76.80;;;;;;5104294;28;19912;-48
2023/09/21 04:42:46;;;;;;;;;;;22.80;76.80;;;;;;5096294;28;20023;-47
2023/09/21 04:45:13;;;;;;;;;;;22.80;76.90;;;;;;5093946;28;19919;-46
2023/09/21 04:47:40;;;;;;;;;;;22.80;76.90;;;;;;5098276;28;19912;-46
2023/09/21 04:50:06;;;;;;;;;;;22.80;76.90;;;;;;5102161;28;19922;-45
2023/09/21 04:52:34;;;;;;;;;;;22.70;76.70;;;;;;5102827;28;19915;-45
2023/09/21 04:54:59;;;;;;;;;;;22.70;76.80;;;;;;5101860;28;19916;-46
2023/09/21 04:57:28;;;;;;;;;;;22.70;76.80;;;;;;5106051;28;19916;-45
2023/09/21 04:59:55;;;;;;;;;;;22.70;76.70;;;;;;5112812;28;19912;-45
2023/09/21 05:02:21;;;;;;;;;;;22.70;76.80;;;;;;5118039;28;20072;-46
2023/09/21 05:04:47;;;;;;;;;;;22.70;76.70;;;;;;5122910;28;19911;-46
2023/09/21 05:07:14;;;;;;;;;;;22.70;76.70;;;;;;5127043;27;19918;-47
2023/09/21 05:09:40;;;;;;;;;;;22.70;76.80;;;;;;5124040;28;20299;-46
2023/09/21 05:12:06;;;;;;;;;;;22.70;76.80;;;;;;5121119;28;19919;-46
2023/09/21 05:14:33;;;;;;;;;;;22.70;76.80;;;;;;5123602;27;19915;-45
2023/09/21 05:16:59;;;;;;;;;;;22.70;76.90;;;;;;5121798;28;20486;-45
2023/09/21 05:19:25;;;;;;;;;;;22.60;76.80;;;;;;5115323;28;19911;-45
2023/09/21 05:21:56;;;;;;;;;;;22.60;76.90;;;;;;5122265;28;19912;-46
2023/09/21 05:24:23;;;;;;;;;;;22.60;77.00;;;;;;5117786;28;19916;-46
2023/09/21 05:26:49;;;;;;;;;;;22.60;77.00;;;;;;5117941;28;19947;-45
2023/09/21 05:29:15;;;;;;;;;;;22.60;77.00;;;;;;5123291;28;19927;-46
2023/09/21 05:31:41;;;;;;;;;;;22.60;77.00;;;;;;5123187;28;19963;-45
2023/09/21 05:34:07;;;;;;;;;;;22.60;76.90;;;;;;5122399;28;19923;-46
2023/09/21 05:36:33;;;;;;;;;;;22.60;76.90;;;;;;5122914;28;19908;-45
2023/09/21 05:39:01;;;;;;;;;;;22.60;76.90;;;;;;5115312;28;19938;-45
2023/09/21 05:41:27;;;;;;;;;;;22.60;76.90;;;;;;5115933;28;19985;-45
2023/09/21 05:43:53;;;;;;;;;;;22.50;76.90;;;;;;5132080;28;19907;-45
2023/09/21 05:46:20;;;;;;;;;;;22.50;76.90;;;;;;5125595;28;19911;-46
2023/09/21 05:48:46;;;;;;;;;;;22.50;76.90;;;;;;5127004;28;19984;-45
2023/09/21 05:51:12;;;;;;;;;;;22.50;76.90;;;;;;5123182;28;19916;-45
2023/09/21 05:53:38;;;;;;;;;;;22.50;77.10;;;;;;5122965;28;19908;-46
2023/09/21 05:56:04;;;;;;;;;;;22.50;77.10;;;;;;5122494;28;19963;-44
2023/09/21 05:58:30;;;;;;;;;;;22.50;77.00;;;;;;5123559;28;19919;-45
2023/09/21 06:00:59;;;;;;;;;;;22.50;77.10;;;;;;5122333;28;20006;-46
2023/09/21 06:03:26;;;;;;;;;;;22.50;77.20;;;;;;5118226;28;19907;-45
2023/09/21 06:05:52;;;;;;;;;;;22.50;77.10;;;;;;5123146;28;19912;-46
2023/09/21 06:08:21;;;;;;;;;;;22.50;77.20;;;;;;5118846;28;19919;-46
2023/09/21 06:10:47;;;;;;;;;;;22.50;77.20;;;;;;5118709;28;19908;-45
2023/09/21 06:13:13;;;;;;;;;;;22.40;77.10;;;;;;5121810;28;19936;-44
2023/09/21 06:15:45;;;;;;;;;;;22.40;77.10;;;;;;5126122;28;20583;-45
2023/09/21 06:18:11;;;;;;;;;;;22.40;77.00;;;;;;5126045;28;20000;-45
2023/09/21 06:20:38;;;;;;;;;;;22.40;77.00;;;;;;5126798;28;20348;-45
2023/09/21 06:23:06;;;;;;;;;;;22.40;77.10;;;;;;5126258;28;19915;-45
2023/09/21 06:25:33;;;;;;;;;;;22.40;77.00;;;;;;5126549;28;19907;-45
2023/09/21 06:27:58;;;;;;;;;;;22.40;77.10;;;;;;5125577;28;19911;-45
2023/09/21 06:30:24;;;;;;;;;;;22.40;77.20;;;;;;5125919;28;20002;-46
2023/09/21 06:32:50;;;;;;;;;;;22.40;77.20;;;;;;5126149;28;19911;-44
2023/09/21 06:35:16;;;;;;;;;;;22.40;77.20;;;;;;5125426;28;19908;-45
2023/09/21 06:37:42;;;;;;;;;;;22.40;77.30;;;;;;5118706;27;19962;-44
2023/09/21 06:40:09;;;;;;;;;;;22.40;77.30;;;;;;5120959;27;19908;-46
2023/09/21 06:42:53;;;;;;;;;;;22.40;77.30;;;;;;5125569;28;19914;-46
2023/09/21 06:45:19;;;;;;;;;;;22.30;77.30;;;;;;5141684;27;19911;-46
2023/09/21 06:47:47;;;;;;;;;;;22.30;77.30;;;;;;5125615;28;19908;-45
2023/09/21 06:50:14;;;;;;;;;;;22.30;77.30;;;;;;5126171;27;19928;-45
2023/09/21 06:52:40;;;;;;;;;;;22.30;77.30;;;;;;5123557;28;19914;-45
2023/09/21 06:55:06;;;;;;;;;;;22.30;77.30;;;;;;5125408;28;19916;-45
2023/09/21 06:57:52;;;;;;;;;;;22.30;77.30;;;;;;5125521;28;19930;-45
2023/09/21 07:00:18;;;;;;;;;;;22.30;77.40;;;;;;5033316;28;19924;-44
2023/09/21 07:02:44;;;;;;;;;;;22.30;77.30;;;;;;5038474;28;19913;-46
2023/09/21 07:05:12;;;;;;;;;;;22.30;77.30;;;;;;5034988;28;19909;-46
2023/09/21 07:07:38;;;;;;;;;;;22.30;77.40;;;;;;5041866;28;19909;-45
2023/09/21 07:10:05;;;;;;;;;;;22.30;77.40;;;;;;5030146;28;19975;-45
2023/09/21 07:12:31;;;;;;;;;;;22.30;77.40;;;;;;5042531;28;19936;-44
2023/09/21 07:14:58;;;;;;;;;;;22.20;77.50;;;;;;5035370;28;19909;-45
2023/09/21 07:17:24;;;;;;;;;;;22.20;77.50;;;;;;5038395;28;19913;-45
2023/09/21 07:19:50;;;;;;;;;;;22.20;77.50;;;;;;5038707;28;19908;-45
2023/09/21 07:22:16;;;;;;;;;;;22.20;77.50;;;;;;5034348;28;19977;-45
2023/09/21 07:24:42;;;;;;;;;;;22.20;77.60;;;;;;5034737;28;19912;-44
2023/09/21 07:27:08;;;;;;;;;;;22.20;77.60;;;;;;5025437;28;19910;-45
2023/09/21 07:29:35;;;;;;;;;;;22.20;77.60;;;;;;5031669;28;20457;-45
2023/09/21 07:32:01;;;;;;;;;;;22.20;77.60;;;;;;5035626;28;20368;-45
2023/09/21 07:34:27;;;;;;;;;;;22.20;77.60;;;;;;5042195;28;19905;-45
2023/09/21 07:36:53;;;;;;;;;;;22.20;77.70;;;;;;5065529;28;19908;-45
2023/09/21 07:39:18;;;;;;;;;;;22.20;77.60;;;;;;5124573;28;19959;-46
2023/09/21 07:41:46;;;;;;;;;;;22.20;77.70;;;;;;5118817;28;19919;-46
2023/09/21 07:44:13;;;;;;;;;;;22.20;77.70;;;;;;5123256;28;19967;-45
2023/09/21 07:46:39;;;;;;;;;;;22.20;77.70;;;;;;5124543;28;19916;-44
2023/09/21 07:49:05;;;;;;;;;;;22.20;77.70;;;;;;5122844;28;20394;-44
2023/09/21 07:51:31;;;;;;;;;;;22.10;77.70;;;;;;5124519;28;19995;-44
2023/09/21 07:53:57;;;;;;;;;;;22.10;77.70;;;;;;5116579;28;19912;-45
2023/09/21 07:56:23;;;;;;;;;;;22.10;77.70;;;;;;5124151;28;19954;-44
2023/09/21 07:58:49;;;;;;;;;;;22.10;77.70;;;;;;5124883;28;19915;-45
2023/09/21 08:01:15;;;;;;;;;;;22.10;77.70;;;;;;5121426;28;19983;-45
2023/09/21 08:03:41;;;;;;;;;;;22.10;77.80;;;;;;5113596;28;20700;-45
2023/09/21 08:06:07;;;;;;;;;;;22.10;77.70;;;;;;5117253;28;20045;-45
2023/09/21 08:08:33;;;;;;;;;;;22.10;77.90;;;;;;5117530;28;20010;-44
2023/09/21 08:10:59;;;;;;;;;;;22.10;77.70;;;;;;5117383;28;20256;-47
2023/09/21 08:13:25;;;;;;;;;;;22.10;77.80;;;;;;5118243;28;19911;-45
2023/09/21 08:15:52;;;;;;;;;;;22.10;77.70;;;;;;5117445;28;19912;-45
2023/09/21 08:18:18;;;;;;;;;;;22.10;77.70;;;;;;5117954;27;20424;-45
2023/09/21 08:20:44;;;;;;;;;;;22.10;77.70;;;;;;5117959;27;19911;-45
2023/09/21 08:23:10;;;;;;;;;;;22.10;77.80;;;;;;5117441;28;19914;-45
2023/09/21 08:25:37;;;;;;;;;;;22.00;77.70;;;;;;5117972;28;19935;-45
2023/09/21 08:28:03;;;;;;;;;;;22.00;77.60;;;;;;5116870;28;19963;-44
2023/09/21 08:30:32;;;;;;;;;;;22.00;77.70;;;;;;5117241;28;19941;-45
2023/09/21 08:32:58;;;;;;;;;;;22.00;77.70;;;;;;5121569;28;19912;-44
2023/09/21 08:35:24;;;;;;;;;;;22.00;77.70;;;;;;5123960;28;19911;-44
2023/09/21 08:37:50;;;;;;;;;;;22.00;77.60;;;;;;5123411;28;19907;-47
2023/09/21 08:40:17;;;;;;;;;;;22.00;77.80;;;;;;5123805;28;19983;-47
2023/09/21 08:42:43;;;;;;;;;;;22.00;77.70;;;;;;5123148;28;19912;-46
2023/09/21 08:45:11;;;;;;;;;;;22.00;77.80;;;;;;5116505;28;19916;-45
2023/09/21 08:47:38;;;;;;;;;;;22.00;77.70;;;;;;5105934;28;19933;-45
2023/09/21 08:50:04;;;;;;;;;;;22.00;77.70;;;;;;5117139;28;19961;-45
2023/09/21 08:52:31;;;;;;;;;;;22.00;77.80;;;;;;5124254;28;19939;-45
2023/09/21 08:54:57;;;;;;;;;;;22.00;77.80;;;;;;5121407;28;19965;-45
2023/09/21 08:57:23;;;;;;;;;;;22.00;77.80;;;;;;5123417;28;19945;-45
2023/09/21 08:59:50;;;;;;;;;;;22.00;77.90;;;;;;5124273;28;19934;-45
2023/09/21 09:02:15;;;;;;;;;;;21.90;77.80;;;;;;5138168;27;20022;-45
2023/09/21 09:04:44;;;;;;;;;;;22.00;77.80;;;;;;5123410;28;19938;-45
2023/09/21 09:07:13;;;;;;;;;;;21.90;77.80;;;;;;5120519;28;19908;-45
2023/09/21 09:09:39;;;;;;;;;;;21.90;77.80;;;;;;5117550;28;19954;-45
2023/09/21 09:12:24;;;;;;;;;;;21.90;77.80;;;;;;5122296;28;19914;-45
2023/09/21 09:14:50;;;;;;;;;;;21.90;77.80;;;;;;5123789;28;19911;-45
2023/09/21 09:17:16;;;;;;;;;;;21.90;77.90;;;;;;5121007;28;20386;-47
2023/09/21 09:19:43;;;;;;;;;;;21.90;77.90;;;;;;5119663;28;19957;-46
2023/09/21 09:22:13;;;;;;;;;;;21.90;77.90;;;;;;5120988;28;19944;-45
2023/09/21 09:24:39;;;;;;;;;;;21.90;78.00;;;;;;5122764;28;19951;-45
2023/09/21 09:27:05;;;;;;;;;;;21.90;77.90;;;;;;5121293;28;19916;-45
2023/09/21 09:29:31;;;;;;;;;;;21.90;78.70;;;;;;5122844;28;19915;-49
2023/09/21 09:31:59;;;;;;;;;;;21.90;77.90;;;;;;5112981;28;19908;-45
2023/09/21 09:34:27;;;;;;;;;;;21.90;77.90;;;;;;5121843;28;19908;-45
2023/09/21 09:36:55;;;;;;;;;;;21.80;77.90;;;;;;5123178;28;19918;-46
2023/09/21 09:39:23;;;;;;;;;;;21.80;77.90;;;;;;5122988;28;19911;-45
2023/09/21 09:41:50;;;;;;;;;;;21.80;77.90;;;;;;5123312;28;19922;-45
2023/09/21 09:44:21;;;;;;;;;;;21.80;77.90;;;;;;5122951;28;19951;-45
2023/09/21 09:46:48;;;;;;;;;;;21.80;78.00;;;;;;5123395;28;20344;-45
2023/09/21 09:49:14;;;;;;;;;;;21.80;78.00;;;;;;5139190;27;19930;-45
2023/09/21 09:51:44;;;;;;;;;;;21.80;78.00;;;;;;5127321;27;19911;-45
2023/09/21 09:54:11;;;;;;;;;;;21.80;78.00;;;;;;5127300;28;19907;-46
2023/09/21 09:56:41;;;;;;;;;;;21.80;78.00;;;;;;5103090;28;19930;-44
2023/09/21 09:59:08;;;;;;;;;;;21.80;78.00;;;;;;5124770;28;19918;-44
2023/09/21 10:01:37;;;;;;;;;;;21.80;78.00;;;;;;5127231;28;19915;-44
2023/09/21 10:04:05;;;;;;;;;;;21.80;78.00;;;;;;5119447;28;19915;-44
2023/09/21 10:06:34;;;;;;;;;;;21.80;78.70;;;;;;5119184;28;19966;-43
2023/09/21 10:09:02;;;;;;;;;;;21.80;78.00;;;;;;5119604;28;19920;-44
2023/09/21 10:11:28;;;;;;;;;;;21.70;78.00;;;;;;5119986;28;19907;-45
2023/09/21 10:13:56;;;;;;;;;;;21.80;78.00;;;;;;5120690;28;19919;-44
2023/09/21 10:16:23;;;;;;;;;;;21.70;78.00;;;;;;5120173;28;20409;-44
2023/09/21 10:18:53;;;;;;;;;;;21.70;78.00;;;;;;5119446;28;20014;-45
2023/09/21 10:21:23;;;;;;;;;;;21.70;78.00;;;;;;5119776;28;19920;-44
2023/09/21 10:24:06;;;;;;;;;;;21.70;78.10;;;;;;5120057;28;20609;-45
2023/09/21 10:26:33;;;;;;;;;;;21.70;78.10;;;;;;5118948;28;19954;-44
2023/09/21 10:29:03;;;;;;;;;;;21.70;78.00;;;;;;5119569;28;19987;-45
2023/09/21 10:31:30;;;;;;;;;;;21.70;78.10;;;;;;5118764;28;19915;-45
2023/09/21 10:33:59;;;;;;;;;;;21.70;78.10;;;;;;5122596;28;19916;-44
2023/09/21 10:36:28;;;;;;;;;;;21.70;78.10;;;;;;5126405;28;20512;-44
2023/09/21 10:39:09;;;;;;;;;;;21.70;78.00;;;;;;5125992;28;19912;-44
2023/09/21 10:41:35;;;;;;;;;;;21.70;78.00;;;;;;5119958;28;19950;-44
2023/09/21 10:44:02;;;;;;;;;;;21.70;78.80;;;;;;5125801;28;19908;-44
2023/09/21 10:46:33;;;;;;;;;;;21.60;78.00;;;;;;5126429;28;19916;-44
2023/09/21 10:49:11;;;;;;;;;;;21.60;78.00;;;;;;5125266;28;19931;-45
2023/09/21 10:51:40;;;;;;;;;;;21.60;78.10;;;;;;5123959;28;20547;-44
2023/09/21 10:54:06;;;;;;;;;;;21.60;78.10;;;;;;5124164;28;19912;-45
2023/09/21 10:56:36;;;;;;;;;;;21.60;78.10;;;;;;5121703;28;19912;-45
2023/09/21 10:59:02;;;;;;;;;;;21.60;78.10;;;;;;5123219;27;19918;-44
2023/09/21 11:01:29;;;;;;;;;;;21.60;78.10;;;;;;5124351;28;19911;-45
2023/09/21 11:03:54;;;;;;;;;;;21.60;78.20;;;;;;5119594;28;19912;-44
2023/09/21 11:06:20;;;;;;;;;;;21.60;78.20;;;;;;5118985;28;19918;-45
2023/09/21 11:08:49;;;;;;;;;;;21.60;78.10;;;;;;5119139;28;19917;-45
2023/09/21 11:11:16;;;;;;;;;;;21.60;78.20;;;;;;5118583;28;20330;-45
2023/09/21 11:13:42;;;;;;;;;;;21.60;78.90;;;;;;5118469;28;19960;-46
2023/09/21 11:16:09;;;;;;;;;;;21.50;78.10;;;;;;5118859;27;19929;-45
2023/09/21 11:18:38;;;;;;;;;;;21.60;78.20;;;;;;5116940;27;19918;-44
2023/09/21 11:21:04;;;;;;;;;;;21.50;78.20;;;;;;5097922;28;19912;-44
2023/09/21 11:23:32;;;;;;;;;;;21.60;78.20;;;;;;5118729;28;19938;-44
2023/09/21 11:26:02;;;;;;;;;;;21.60;78.20;;;;;;5118680;28;19915;-44
2023/09/21 11:28:32;;;;;;;;;;;21.60;78.30;;;;;;5117851;28;19927;-44
2023/09/21 11:30:58;;;;;;;;;;;21.50;78.20;;;;;;5118337;28;19998;-44
2023/09/21 11:33:25;;;;;;;;;;;21.50;78.30;;;;;;5123951;28;19949;-44
2023/09/21 11:35:51;;;;;;;;;;;21.50;78.20;;;;;;5141055;27;19912;-45
2023/09/21 11:38:17;;;;;;;;;;;21.50;78.30;;;;;;5124956;27;19911;-43
2023/09/21 11:40:43;;;;;;;;;;;21.50;78.20;;;;;;5125166;28;19914;-46
2023/09/21 11:43:20;;;;;;;;;;;21.50;78.30;;;;;;5139870;27;19911;-44
2023/09/21 11:45:46;;;;;;;;;;;21.50;78.30;;;;;;5124890;28;20362;-43
2023/09/21 11:48:12;;;;;;;;;;;21.50;78.30;;;;;;5123711;28;19908;-44
2023/09/21 11:50:38;;;;;;;;;;;21.50;78.20;;;;;;5124943;28;19919;-44
2023/09/21 11:53:07;;;;;;;;;;;21.50;78.30;;;;;;5124378;28;19922;-44
2023/09/21 11:55:33;;;;;;;;;;;21.50;78.30;;;;;;5124747;28;19969;-44
2023/09/21 11:58:09;;;;;;;;;;;21.50;78.30;;;;;;5123961;28;20352;-43
2023/09/21 12:00:45;;;;;;;;;;;21.50;78.40;;;;;;5133069;27;19914;-43
2023/09/21 12:03:12;;;;;;;;;;;21.50;78.40;;;;;;5119701;28;19942;-44
2023/09/21 12:05:42;;;;;;;;;;;21.50;78.40;;;;;;5118186;28;19976;-44
2023/09/21 12:08:11;;;;;;;;;;;21.40;78.40;;;;;;5117088;28;19916;-44
2023/09/21 12:10:37;;;;;;;;;;;21.40;78.40;;;;;;5117276;28;19922;-44
2023/09/21 12:13:03;;;;;;;;;;;21.40;78.40;;;;;;5117055;28;19908;-44
2023/09/21 12:15:29;;;;;;;;;;;21.40;78.40;;;;;;5117903;28;19915;-44
2023/09/21 12:17:55;;;;;;;;;;;21.40;78.40;;;;;;5116250;28;19918;-45
2023/09/21 12:20:21;;;;;;;;;;;21.40;78.40;;;;;;5117293;28;19911;-44
2023/09/21 12:22:47;;;;;;;;;;;21.40;78.40;;;;;;5118066;28;19907;-44
2023/09/21 12:25:16;;;;;;;;;;;21.40;78.40;;;;;;5117100;28;19945;-44
2023/09/21 12:27:43;;;;;;;;;;;21.40;78.40;;;;;;5116815;28;20465;-44
2023/09/21 12:30:12;;;;;;;;;;;21.40;78.50;;;;;;5116685;28;19934;-46
2023/09/21 12:32:39;;;;;;;;;;;21.40;78.50;;;;;;5120482;28;19919;-44
2023/09/21 12:35:07;;;;;;;;;;;21.40;78.50;;;;;;5124311;28;19908;-44
2023/09/21 12:37:33;;;;;;;;;;;21.40;78.50;;;;;;5116328;28;19954;-45
2023/09/21 12:39:59;;;;;;;;;;;21.40;78.60;;;;;;5123863;28;19915;-43
2023/09/21 12:42:25;;;;;;;;;;;21.30;78.50;;;;;;5123679;28;19914;-44
2023/09/21 12:44:51;;;;;;;;;;;21.40;78.60;;;;;;5123657;28;19911;-45
2023/09/21 12:47:17;;;;;;;;;;;21.40;78.60;;;;;;5122973;28;19911;-44
2023/09/21 12:49:43;;;;;;;;;;;21.40;78.70;;;;;;5123179;28;20330;-46
2023/09/21 12:52:09;;;;;;;;;;;21.40;78.70;;;;;;5123181;28;19923;-44
2023/09/21 12:54:35;;;;;;;;;;;21.30;78.60;;;;;;5123823;28;19907;-44
2023/09/21 12:57:03;;;;;;;;;;;21.30;78.60;;;;;;5122798;28;19938;-43
2023/09/21 12:59:29;;;;;;;;;;;21.30;78.60;;;;;;5119800;28;19923;-45
2023/09/21 13:01:56;;;;;;;;;;;21.30;78.60;;;;;;5122567;28;19958;-45
2023/09/21 13:04:23;;;;;;;;;;;21.30;78.70;;;;;;5123267;28;19911;-46
2023/09/21 13:06:50;;;;;;;;;;;21.30;78.70;;;;;;5104878;28;19917;-46
2023/09/21 13:09:16;;;;;;;;;;;21.30;78.80;;;;;;5123143;28;19920;-46
2023/09/21 13:11:42;;;;;;;;;;;21.30;78.70;;;;;;5123245;28;20343;-45
2023/09/21 13:14:08;;;;;;;;;;;21.30;78.80;;;;;;5123001;28;19914;-45
2023/09/21 13:16:34;;;;;;;;;;;21.30;78.80;;;;;;5105278;28;19972;-45
2023/09/21 13:19:00;;;;;;;;;;;21.30;78.80;;;;;;5123339;28;19911;-44
2023/09/21 13:21:27;;;;;;;;;;;21.30;78.80;;;;;;5123135;28;19907;-46
2023/09/21 13:23:53;;;;;;;;;;;21.30;78.80;;;;;;5122295;28;19919;-45
2023/09/21 13:26:19;;;;;;;;;;;21.30;78.90;;;;;;5118475;28;19916;-46
2023/09/21 13:28:45;;;;;;;;;;;21.30;78.90;;;;;;5122697;28;20016;-45
2023/09/21 13:31:11;;;;;;;;;;;21.30;78.90;;;;;;5122333;28;19929;-48
2023/09/21 13:33:38;;;;;;;;;;;21.30;78.90;;;;;;5122931;28;19976;-46
2023/09/21 13:36:04;;;;;;;;;;;21.30;78.90;;;;;;5096415;28;20034;-45
2023/09/21 13:38:30;;;;;;;;;;;21.30;78.90;;;;;;5122938;28;19922;-45
2023/09/21 13:40:57;;;;;;;;;;;21.30;78.90;;;;;;5122821;28;19972;-45
2023/09/21 13:43:24;;;;;;;;;;;21.30;78.90;;;;;;5107741;28;19935;-45
2023/09/21 13:45:50;;;;;;;;;;;21.30;79.00;;;;;;5123230;28;20363;-46
2023/09/21 13:48:16;;;;;;;;;;;21.30;78.90;;;;;;5122698;28;19912;-46
2023/09/21 13:50:42;;;;;;;;;;;21.30;79.00;;;;;;5116443;28;19919;-45
2023/09/21 13:53:09;;;;;;;;;;;21.30;79.00;;;;;;5113463;28;19919;-44
2023/09/21 13:55:36;;;;;;;;;;;21.30;79.00;;;;;;5114614;28;19908;-45
2023/09/21 13:58:02;;;;;;;;;;;21.30;79.10;;;;;;5119519;28;19911;-44
2023/09/21 14:00:30;;;;;;;;;;;21.30;79.00;;;;;;5115484;28;19912;-46
2023/09/21 14:02:56;;;;;;;;;;;21.30;79.00;;;;;;5115328;28;19911;-44
2023/09/21 14:05:22;;;;;;;;;;;21.30;79.00;;;;;;5107109;28;19907;-44
2023/09/21 14:07:49;;;;;;;;;;;21.30;79.00;;;;;;5123042;28;19911;-44
2023/09/21 14:10:15;;;;;;;;;;;21.30;79.00;;;;;;5122405;28;19931;-44
2023/09/21 14:12:41;;;;;;;;;;;21.30;79.10;;;;;;5122635;28;20299;-43
2023/09/21 14:15:07;;;;;;;;;;;21.30;79.10;;;;;;5104294;28;19919;-44
2023/09/21 14:17:35;;;;;;;;;;;21.30;79.10;;;;;;5122602;28;19908;-44